CEJ2 weather

CLOSED Andrew Airport
Andrew, Alberta, Canada

Public forecast

Using degrees Celsius for public forecast. Weather courtesy of forecast.io.

METAR (pilot weather report)

Closest report is Edmonton (CFB Namao) Heliport, 41.2 nm (76.3 km) WSW. Retrieved 2019/05/25 23:00 UTC (7 minutes ago):

CYED 252300Z AUTO 28009KT 9SM BKN063 16/05 A2999 RMK SLP170

TAF (pilot weather forecast)

Forecast is more than 12 hours old.

Closest forecast is Edmonton (CFB Namao) Heliport, 41.2 nm (76.3 km) WSW. Retrieved 2019/05/24 00:33 UTC (2 days ago):

TAF CYED 242332Z 2500/2512 04010KT P6SM SCT015 OVC040 TEMPO 2500/2503 21/2SM -SHRA BR BKN015 OVC040 PROB30 2500/2503 VRB15G25KT 2SM TSRA BR BKN008 OVC040CB FM250300 04005KT P6SM SCT040 BKN100 OVC240 FM250800 VRB03KT P6SM SCT100 OVC220 RMK FCST BASED ON AUTO OBS. PCPN SENSORS INOP. NXT FCST BY 250600Z